ENSH

Svolvær Helle Airport

Svolvær, Norway
METAR ENSH 151950Z 07005KT CAVOK 15/08 Q1007 RMK WIND 150FT 11007KT
Observed Flight Rules
Aug-15 @ 19:50 UTC (3 hours ago) Visual Flight Rules
Wind Visibility Clouds
70° at 5 knots 10,000+ meters
  • Clear skies
Temperatures Readings
Current 15°C / 59°F
Dewpoint 8°C / 46°F
Humidity 63%
Altimeter 29.73" Hg
Pressure 1007 hPa
Elevation 9
METAR ENSH 151950Z 07005KT CAVOK 15/08 Q1007 RMK WIND 150FT 11007KT
Observed Flight Rules
Aug-15 @ 19:50 UTC
(3 hours ago)
VFR
Wind Visibility
70° at 5 knots 10,000+ meters
Clouds
  • Clear skies
Temperature Dewpoint
15°C / 59°F 8°C / 46°F
Humidity Altimeter Pressure
63% 29.73" Hg 1007 hPa